»·PEaware :: N982CA KSAN-KSNA

N982CA :: KSAN-KSNA

FLIGHT INFORMATION

Flight Status: Arrived
Operator: Privately registered:
United States
More flights under this callsign
Pilot: David C. (25479)
Aircraft: SOCATA TBM-900
(TBM9)
More flights by this aircraft type
Origin: KSAN San Diego Intl-Lindbergh
United States
Destination: KSNA John Wayne-Orange Co
United States
More flights between these airports :: More routes between these airports
Route: CWARD2 SLI
File this flight plan on PilotEdge
Remarks:
Altitude:
(Current/Filed)
8,000ft
Speed:
(Current/Filed)
175kts
Departed: 12-Jan-21 08:51 PM
Arrived: 12-Jan-21 09:27 PM
Distance/Time
Traveled:
66nm/0:36
Distance/Time
To Go:
Arrived

Flight Plot

Page will automatically refresh every two minutes.

Flight plan parsing failed; only flown route is shown


Map Options




Map Legend


Flown Route
Filed Route
Departure Airport
Arrival Airport
Navaid (VOR, NDB)
Fix

Horizontal Profiles

Position Reports

Time Latitude Longitude Heading Altitude Ground
Speed
12-Jan-21 20:40 32.733630 -117.179034 287 20ft 0kts
12-Jan-21 20:41 32.733630 -117.179034 287 20ft 0kts
12-Jan-21 20:42 32.733630 -117.179034 287 20ft 0kts
12-Jan-21 20:43 32.733630 -117.179034 287 20ft 0kts
12-Jan-21 20:44 32.733630 -117.179034 287 20ft 0kts
12-Jan-21 20:45 32.733630 -117.179034 287 20ft 0kts
12-Jan-21 20:47 32.733630 -117.179034 287 20ft 0kts
12-Jan-21 20:48 32.732113 -117.178935 106 16ft 17kts
12-Jan-21 20:49 32.730911 -117.175529 169 17ft 0kts
12-Jan-21 20:50 32.730290 -117.176288 281 16ft 20kts
12-Jan-21 20:51 32.741630 -117.213209 301 837ft 160kts
12-Jan-21 20:52 32.754097 -117.245741 291 1995ft 97kts
12-Jan-21 20:53 32.777361 -117.284144 307 3032ft 176kts
12-Jan-21 20:54 32.808750 -117.332625 306 4061ft 191kts
12-Jan-21 20:55 32.841088 -117.382713 305 5038ft 197kts
12-Jan-21 20:56 32.870650 -117.428630 307 5833ft 207kts
12-Jan-21 20:57 32.907031 -117.485163 308 6396ft 212kts
12-Jan-21 20:58 32.942396 -117.540177 308 7376ft 212kts
12-Jan-21 20:59 32.981979 -117.601843 309 7933ft 252kts
12-Jan-21 21:00 33.025712 -117.670243 309 7960ft 260kts
12-Jan-21 21:01 33.071325 -117.736189 315 7994ft 257kts
12-Jan-21 21:02 33.125138 -117.791944 321 8000ft 257kts
12-Jan-21 21:03 33.179971 -117.846205 329 7998ft 258kts
12-Jan-21 21:03 33.235999 -117.872660 346 8000ft 262kts
12-Jan-21 21:05 33.320371 -117.893392 348 8000ft 268kts
12-Jan-21 21:06 33.393538 -117.912372 341 8000ft 270kts
12-Jan-21 21:07 33.465252 -117.938759 342 8000ft 267kts
12-Jan-21 21:07 33.522547 -117.959597 342 8000ft 264kts
12-Jan-21 21:08 33.592193 -117.984952 343 7999ft 261kts
12-Jan-21 21:10 33.656401 -118.003378 22 7975ft 161kts
12-Jan-21 21:10 33.689740 -117.986555 22 7399ft 141kts
12-Jan-21 21:11 33.725262 -117.968259 22 6419ft 138kts
12-Jan-21 21:12 33.760358 -117.950090 22 5417ft 137kts
12-Jan-21 21:13 33.793808 -117.928219 32 4411ft 138kts
12-Jan-21 21:14 33.825814 -117.902183 33 3412ft 139kts
12-Jan-21 21:15 33.856626 -117.877154 33 3015ft 128kts
12-Jan-21 21:16 33.885988 -117.854037 33 2999ft 125kts
12-Jan-21 21:17 33.900034 -117.821301 91 2999ft 121kts
12-Jan-21 21:18 33.898518 -117.780724 92 2999ft 122kts
12-Jan-21 21:19 33.889916 -117.745258 182 2991ft 124kts
12-Jan-21 21:20 33.856299 -117.754885 200 3001ft 125kts
12-Jan-21 21:21 33.825400 -117.774153 207 2997ft 125kts
12-Jan-21 21:22 33.793150 -117.794437 207 2530ft 135kts
12-Jan-21 21:23 33.759891 -117.815495 207 1792ft 135kts
12-Jan-21 21:24 33.726894 -117.836457 207 1068ft 134kts
12-Jan-21 21:25 33.695632 -117.856331 208 397ft 123kts
12-Jan-21 21:26 33.674450 -117.869668 217 52ft 24kts
12-Jan-21 21:27 33.674419 -117.871023 302 47ft 8kts
12-Jan-21 21:28 33.671484 -117.873021 206 47ft 13kts
12-Jan-21 21:29 33.672328 -117.873529 43 46ft 0kts
12-Jan-21 21:30 33.672328 -117.873529 43 46ft 0kts
12-Jan-21 21:31 33.672328 -117.873529 43 46ft 0kts
12-Jan-21 21:32 33.672328 -117.873529 43 46ft 0kts
12-Jan-21 21:33 33.672328 -117.873529 43 46ft 0kts
12-Jan-21 21:34 33.672328 -117.873529 43 46ft 0kts
12-Jan-21 21:35 33.672328 -117.873529 43 46ft 0kts

Navigation Log

Ident Type
Flight plan parsing failed, navigation log unavailable